Time;durP1;ratioP1;P1;durP2;ratioP2;P2;SDS_P1;SDS_P2;PMS_P1;PMS_P2;Temp;Humidity;BMP_temperature;BMP_pressure;BME280_temperature;BME280_humidity;BME280_pressure;Samples;Min_cycle;Max_cycle;Signal;HPM_P1;HPM_P2
2023/08/29 00:00:24;;;;;;;0.10;0.10;;;;;;;12.84;100.00;96086.75;4840256;29;20538;-80
2023/08/29 00:03:10;;;;;;;0.10;0.10;;;;;;;12.91;100.00;96081.88;4841045;29;20590;-81
2023/08/29 00:06:03;;;;;;;0.10;0.10;;;;;;;12.74;100.00;96082.19;4839673;29;21028;-81
2023/08/29 00:08:48;;;;;;;0.10;0.10;;;;;;;12.62;100.00;96083.56;4842030;29;20728;-80
2023/08/29 00:11:34;;;;;;;0.10;0.10;;;;;;;12.43;100.00;96073.34;4840335;29;20072;-80
2023/08/29 00:14:20;;;;;;;0.10;0.10;;;;;;;12.35;100.00;96090.00;4842623;29;20085;-81
2023/08/29 00:17:09;;;;;;;0.10;0.10;;;;;;;12.30;100.00;96084.66;4839062;29;20049;-80
2023/08/29 00:19:55;;;;;;;0.10;0.10;;;;;;;12.29;100.00;96077.66;4843847;29;20113;-81
2023/08/29 00:22:41;;;;;;;0.10;0.10;;;;;;;12.23;100.00;96092.94;4843123;29;20050;-80
2023/08/29 00:25:27;;;;;;;0.10;0.10;;;;;;;12.22;100.00;96082.50;4846068;29;20132;-81
2023/08/29 00:28:13;;;;;;;0.10;0.10;;;;;;;12.36;100.00;96072.00;4842928;29;20049;-80
2023/08/29 00:30:59;;;;;;;0.10;0.10;;;;;;;12.43;100.00;96067.19;4826699;29;20041;-80
2023/08/29 00:33:45;;;;;;;0.10;0.10;;;;;;;12.32;100.00;96077.13;4844841;29;20057;-80
2023/08/29 00:36:30;;;;;;;0.10;0.10;;;;;;;12.38;100.00;96077.94;4842921;29;20561;-80
2023/08/29 00:39:19;;;;;;;0.10;0.10;;;;;;;12.27;100.00;96082.47;4829775;29;20594;-80
2023/08/29 00:42:05;;;;;;;0.10;0.10;;;;;;;12.30;100.00;96075.78;4841954;29;20118;-80
2023/08/29 00:44:51;;;;;;;0.10;0.10;;;;;;;12.34;100.00;96077.66;4843820;29;20061;-80
2023/08/29 00:47:37;;;;;;;0.10;0.10;;;;;;;12.24;100.00;96073.09;4843280;29;20045;-80
2023/08/29 00:50:25;;;;;;;0.15;0.15;;;;;;;12.31;100.00;96078.19;4845665;29;20115;-80
2023/08/29 00:53:14;;;;;;;0.10;0.10;;;;;;;12.41;100.00;96086.25;4844565;29;20137;-80
2023/08/29 00:56:00;;;;;;;0.10;0.10;;;;;;;12.44;100.00;96088.38;4845397;29;20057;-80
2023/08/29 00:58:46;;;;;;;0.10;0.10;;;;;;;12.40;100.00;96090.00;4842967;29;20116;-80
2023/08/29 01:01:35;;;;;;;0.10;0.10;;;;;;;12.42;100.00;96095.91;4840411;29;20488;-80
2023/08/29 01:04:21;;;;;;;0.10;0.10;;;;;;;12.25;100.00;96084.63;4844252;29;20148;-79
2023/08/29 01:07:07;;;;;;;0.10;0.10;;;;;;;12.35;100.00;96110.66;4843456;29;20038;-80
2023/08/29 01:09:53;;;;;;;0.20;0.20;;;;;;;12.32;100.00;96108.50;4841651;29;20052;-80
2023/08/29 01:12:58;;;;;;;0.10;0.10;;;;;;;12.52;100.00;96112.00;4844540;29;20064;-80
2023/08/29 01:15:48;;;;;;;0.10;0.10;;;;;;;12.63;100.00;96114.69;4843168;29;20056;-80
2023/08/29 01:18:37;;;;;;;0.10;0.10;;;;;;;12.73;100.00;96117.34;4842081;29;20092;-80
2023/08/29 01:21:29;;;;;;;0.10;0.10;;;;;;;12.70;100.00;96121.41;4841996;29;20612;-80
2023/08/29 01:24:29;;;;;;;0.10;0.10;;;;;;;12.65;100.00;96116.03;4841165;29;20057;-81
2023/08/29 01:27:16;;;;;;;0.10;0.10;;;;;;;12.64;100.00;96122.47;4843175;29;20053;-80
2023/08/29 01:30:03;;;;;;;0.13;0.13;;;;;;;12.60;100.00;96120.56;4839376;29;20053;-80
2023/08/29 01:32:50;;;;;;;0.10;0.10;;;;;;;12.59;100.00;96127.03;4841003;29;20081;-81
2023/08/29 01:35:47;;;;;;;0.10;0.10;;;;;;;12.54;100.00;96142.06;4843095;29;20710;-80
2023/08/29 01:38:33;;;;;;;0.10;0.10;;;;;;;12.63;100.00;96149.59;4842015;29;20116;-81
2023/08/29 01:41:18;;;;;;;0.10;0.10;;;;;;;12.72;100.00;96142.59;4842965;29;20037;-81
2023/08/29 01:44:05;;;;;;;0.10;0.10;;;;;;;12.70;100.00;96150.94;4841132;29;20499;-81
2023/08/29 01:46:53;;;;;;;0.10;0.10;;;;;;;12.63;100.00;96153.06;4840784;29;20050;-80
2023/08/29 01:49:42;;;;;;;0.10;0.10;;;;;;;12.70;100.00;96152.81;4842185;29;20145;-80
2023/08/29 01:52:28;;;;;;;0.10;0.10;;;;;;;12.70;100.00;96144.75;4827540;29;20084;-80
2023/08/29 01:55:14;;;;;;;0.10;0.10;;;;;;;12.70;100.00;96148.25;4840828;29;20132;-80
2023/08/29 01:58:02;;;;;;;0.10;0.10;;;;;;;12.66;100.00;96141.78;4840618;29;20053;-80
2023/08/29 02:00:48;;;;;;;0.10;0.10;;;;;;;12.59;100.00;96153.88;4841177;29;20060;-80
2023/08/29 02:03:34;;;;;;;0.10;0.10;;;;;;;12.44;100.00;96152.78;4843530;29;20647;-80
2023/08/29 02:06:20;;;;;;;0.10;0.10;;;;;;;12.43;100.00;96143.13;4843557;29;20034;-80
2023/08/29 02:09:06;;;;;;;0.10;0.10;;;;;;;12.59;100.00;96146.63;4840911;29;20054;-80
2023/08/29 02:11:55;;;;;;;0.10;0.10;;;;;;;12.70;100.00;96139.38;4842361;29;20156;-80
2023/08/29 02:14:41;;;;;;;0.10;0.10;;;;;;;12.70;100.00;96125.97;4842763;29;20058;-80
2023/08/29 02:17:27;;;;;;;0.15;0.15;;;;;;;12.62;100.00;96124.63;4842110;29;20049;-80
2023/08/29 02:20:13;;;;;;;0.10;0.10;;;;;;;12.47;100.00;96111.19;4841694;29;20606;-80
2023/08/29 02:23:01;;;;;;;0.10;0.10;;;;;;;12.34;100.00;96109.84;4841870;29;20543;-80
2023/08/29 02:25:47;;;;;;;0.10;0.10;;;;;;;12.51;100.00;96096.97;4838386;29;20049;-80
2023/08/29 02:28:35;;;;;;;0.10;0.10;;;;;;;12.61;100.00;96084.63;4842519;29;20125;-80
2023/08/29 02:31:22;;;;;;;0.10;0.10;;;;;;;12.65;100.00;96081.13;4841371;29;20524;-80
2023/08/29 02:34:07;;;;;;;0.10;0.10;;;;;;;12.50;100.00;96073.88;4841808;29;20076;-80
2023/08/29 02:36:53;;;;;;;0.10;0.10;;;;;;;12.39;100.00;96074.19;4842429;29;20049;-80
2023/08/29 02:39:41;;;;;;;0.10;0.10;;;;;;;12.28;100.00;96074.16;4827933;29;20503;-80
2023/08/29 02:42:27;;;;;;;0.10;0.10;;;;;;;12.27;100.00;96071.75;4843198;29;20140;-81
2023/08/29 02:45:13;;;;;;;0.10;0.10;;;;;;;12.24;100.00;96072.28;4842154;29;20057;-81
2023/08/29 02:47:59;;;;;;;0.20;0.20;;;;;;;12.19;100.00;96070.41;4841708;29;20522;-81
2023/08/29 02:50:48;;;;;;;0.20;0.20;;;;;;;12.25;100.00;96071.22;4839985;29;20710;-80
2023/08/29 02:53:34;;;;;;;0.10;0.10;;;;;;;12.21;100.00;96062.88;4841516;29;20068;-80
2023/08/29 02:56:19;;;;;;;0.10;0.10;;;;;;;12.27;100.00;96061.03;4840917;29;20049;-80
2023/08/29 02:59:06;;;;;;;0.10;0.10;;;;;;;12.26;100.00;96049.47;4841651;29;20041;-80
2023/08/29 03:01:52;;;;;;;0.10;0.10;;;;;;;12.42;100.00;96055.66;4839540;29;20041;-80
2023/08/29 03:04:38;;;;;;;0.13;0.13;;;;;;;12.47;100.00;96052.16;4842258;29;20472;-80
2023/08/29 03:07:23;;;;;;;0.10;0.10;;;;;;;12.47;100.00;96046.81;4841960;29;21087;-80
2023/08/29 03:10:10;;;;;;;0.20;0.20;;;;;;;12.20;100.00;96053.22;4839402;29;20041;-80
2023/08/29 03:12:56;;;;;;;0.10;0.10;;;;;;;11.91;100.00;96052.16;4840117;29;20594;-81
2023/08/29 03:15:42;;;;;;;0.10;0.10;;;;;;;11.73;100.00;96058.78;4840521;29;20046;-80
2023/08/29 03:18:28;;;;;;;0.10;0.10;;;;;;;11.65;100.00;96054.75;4840148;29;20060;-81
2023/08/29 03:21:14;;;;;;;0.10;0.10;;;;;;;11.68;100.00;96048.06;4839466;29;20049;-79
2023/08/29 03:24:00;;;;;;;0.20;0.20;;;;;;;11.82;100.00;96043.00;4827192;29;20037;-80
2023/08/29 03:26:46;;;;;;;0.10;0.10;;;;;;;11.97;100.00;96041.16;4828870;29;20150;-80
2023/08/29 03:29:31;;;;;;;0.20;0.20;;;;;;;12.01;100.00;96046.00;4840483;29;20503;-80
2023/08/29 03:32:20;;;;;;;0.10;0.10;;;;;;;12.11;100.00;96037.94;4839376;29;20049;-80
2023/08/29 03:35:08;;;;;;;0.13;0.13;;;;;;;12.20;100.00;96033.66;4840745;29;20169;-81
2023/08/29 03:37:54;;;;;;;0.10;0.10;;;;;;;12.28;100.00;96035.78;4838609;29;20041;-80
2023/08/29 03:40:39;;;;;;;0.10;0.10;;;;;;;12.33;100.00;96035.81;4840500;29;20041;-80
2023/08/29 03:43:30;;;;;;;0.03;0.03;;;;;;;12.37;100.00;96022.63;4839582;29;20053;-80
2023/08/29 03:46:16;;;;;;;0.10;0.10;;;;;;;12.38;100.00;96025.06;4840828;29;20041;-80
2023/08/29 03:49:02;;;;;;;0.10;0.10;;;;;;;12.14;100.00;96024.81;4840902;29;20124;-81
2023/08/29 03:51:47;;;;;;;0.10;0.10;;;;;;;12.11;100.00;96024.53;4841157;29;21051;-80
2023/08/29 03:54:33;;;;;;;0.10;0.10;;;;;;;12.22;100.00;96018.91;4841574;29;20164;-80
2023/08/29 03:57:20;;;;;;;0.10;0.10;;;;;;;12.23;100.00;96023.22;4840274;29;20054;-80
2023/08/29 04:00:10;;;;;;;0.10;0.10;;;;;;;12.22;100.00;96031.53;4837816;29;20056;-81
2023/08/29 04:03:06;;;;;;;0.10;0.10;;;;;;;12.24;100.00;96029.38;4842430;29;20081;-82
2023/08/29 04:05:52;;;;;;;0.10;0.10;;;;;;;12.30;100.00;96033.69;4842426;29;20048;-81
2023/08/29 04:08:38;;;;;;;0.10;0.10;;;;;;;12.36;100.00;96029.88;4842455;29;20152;-80
2023/08/29 04:11:23;;;;;;;0.17;0.17;;;;;;;12.32;100.00;96028.84;4827747;29;20041;-81
2023/08/29 04:14:11;;;;;;;0.10;0.10;;;;;;;12.42;100.00;96028.00;4842002;29;20056;-81
2023/08/29 04:16:57;;;;;;;0.10;0.10;;;;;;;12.45;100.00;96041.72;4841930;29;20482;-81
2023/08/29 04:19:43;;;;;;;0.15;0.15;;;;;;;12.48;100.00;96038.47;4840235;29;20050;-81
2023/08/29 04:22:29;;;;;;;0.20;0.20;;;;;;;12.49;100.00;96044.66;4842122;29;20825;-81
2023/08/29 04:25:15;;;;;;;0.10;0.10;;;;;;;12.43;100.00;96046.53;4841239;29;20469;-81
2023/08/29 04:28:01;;;;;;;0.20;0.20;;;;;;;12.39;100.00;96048.16;4841436;29;20778;-81
2023/08/29 04:30:47;;;;;;;0.10;0.10;;;;;;;12.40;100.00;96049.75;4840786;29;20563;-81
2023/08/29 04:33:32;;;;;;;0.10;0.10;;;;;;;12.38;100.00;96048.44;4840009;29;20967;-81
2023/08/29 04:36:18;;;;;;;0.10;0.10;;;;;;;12.40;100.00;96055.13;4841087;29;20109;-81
2023/08/29 04:39:06;;;;;;;0.10;0.10;;;;;;;12.39;100.00;96044.66;4826638;29;20136;-81
2023/08/29 04:41:51;;;;;;;0.10;0.10;;;;;;;12.39;100.00;96047.34;4843688;29;20172;-81
2023/08/29 04:44:37;;;;;;;0.20;0.20;;;;;;;12.39;100.00;96050.84;4841393;29;20049;-81
2023/08/29 04:47:24;;;;;;;0.10;0.10;;;;;;;12.40;100.00;96047.06;4840764;29;20129;-81
2023/08/29 04:50:09;;;;;;;0.15;0.15;;;;;;;12.43;100.00;96046.53;4840867;29;20056;-81
2023/08/29 04:52:57;;;;;;;0.10;0.10;;;;;;;12.46;100.00;96053.25;4827111;29;20250;-81
2023/08/29 04:55:43;;;;;;;0.10;0.10;;;;;;;12.44;100.00;96053.50;4825208;29;20115;-81
2023/08/29 04:58:29;;;;;;;0.10;0.10;;;;;;;12.46;100.00;96046.00;4840433;29;20075;-81
2023/08/29 05:01:16;;;;;;;0.10;0.10;;;;;;;12.41;100.00;96040.63;4824151;29;20049;-81
2023/08/29 05:04:02;;;;;;;0.10;0.10;;;;;;;12.47;100.00;96039.56;4841048;29;20164;-81
2023/08/29 05:06:49;;;;;;;0.20;0.20;;;;;;;12.52;100.00;96052.94;4843720;29;20061;-81
2023/08/29 05:09:38;;;;;;;0.10;0.10;;;;;;;12.53;100.00;96051.09;4842764;29;20054;-81
2023/08/29 05:12:24;;;;;;;0.10;0.10;;;;;;;12.52;100.00;96036.03;4844455;29;20136;-81
2023/08/29 05:15:10;;;;;;;0.10;0.10;;;;;;;12.59;100.00;96044.63;4832257;29;20055;-81
2023/08/29 05:17:56;;;;;;;0.00;0.00;;;;;;;12.59;100.00;96050.00;4844131;29;20187;-81
2023/08/29 05:20:43;;;;;;;0.20;0.20;;;;;;;12.63;100.00;96048.38;4843855;29;20330;-81
2023/08/29 05:23:31;;;;;;;0.15;0.15;;;;;;;12.61;100.00;96052.44;4843585;29;20515;-81
2023/08/29 05:26:17;;;;;;;0.10;0.10;;;;;;;12.68;100.00;96055.63;4844643;29;20048;-81
2023/08/29 05:29:03;;;;;;;0.20;0.20;;;;;;;12.70;100.00;96048.13;4844194;29;20699;-83
2023/08/29 05:31:49;;;;;;;0.30;0.30;;;;;;;12.81;100.00;96060.44;4817219;29;20076;-81
2023/08/29 05:34:35;;;;;;;0.20;0.20;;;;;;;12.84;100.00;96059.91;4845209;29;20700;-81
2023/08/29 05:37:21;;;;;;;0.20;0.20;;;;;;;12.82;100.00;96056.66;4845575;29;20063;-82
2023/08/29 05:40:08;;;;;;;0.10;0.10;;;;;;;12.88;100.00;96065.50;4844390;29;20045;-81
2023/08/29 05:42:54;;;;;;;0.20;0.20;;;;;;;12.79;100.00;96055.34;4829608;29;20050;-81
2023/08/29 05:45:41;;;;;;;0.20;0.20;;;;;;;12.77;100.00;96052.13;4845011;29;20168;-82
2023/08/29 05:48:27;;;;;;;0.28;0.22;;;;;;;12.73;100.00;96056.41;4844215;29;20049;-80
2023/08/29 05:51:12;;;;;;;0.43;0.30;;;;;;;12.70;100.00;96048.91;4842658;29;20070;-81
2023/08/29 05:53:59;;;;;;;0.10;0.10;;;;;;;12.79;100.00;96057.22;4842102;29;20045;-81
2023/08/29 05:56:45;;;;;;;0.10;0.10;;;;;;;12.84;100.00;96051.84;4842910;29;20699;-84
2023/08/29 05:59:31;;;;;;;0.20;0.20;;;;;;;12.88;100.00;96049.41;4843939;29;20542;-84
2023/08/29 06:02:17;;;;;;;0.40;0.30;;;;;;;12.90;100.00;96057.97;4841375;29;20567;-84
2023/08/29 06:05:06;;;;;;;0.20;0.20;;;;;;;12.79;100.00;96052.66;4843424;29;20068;-82
2023/08/29 06:07:52;;;;;;;0.65;0.40;;;;;;;12.78;100.00;96060.97;4840602;29;20087;-83
2023/08/29 06:10:38;;;;;;;0.40;0.40;;;;;;;12.41;100.00;96062.09;4843364;29;20136;-83
2023/08/29 06:13:24;;;;;;;0.20;0.20;;;;;;;12.47;100.00;96061.03;4843790;29;20061;-82
2023/08/29 06:16:10;;;;;;;0.20;0.20;;;;;;;12.66;100.00;96055.09;4843467;29;20084;-82
2023/08/29 06:18:56;;;;;;;0.20;0.20;;;;;;;12.74;100.00;96051.84;4832413;29;20045;-83
2023/08/29 06:21:42;;;;;;;0.40;0.30;;;;;;;12.79;100.00;96039.22;4844714;29;20049;-83
2023/08/29 06:24:28;;;;;;;0.20;0.20;;;;;;;12.89;100.00;96035.69;4828545;29;20483;-82
2023/08/29 06:27:13;;;;;;;0.13;0.13;;;;;;;12.81;100.00;96039.75;4842233;29;20530;-82
2023/08/29 06:29:59;;;;;;;0.20;0.20;;;;;;;12.79;100.00;96031.16;4841513;29;20977;-83
2023/08/29 06:32:45;;;;;;;0.20;0.20;;;;;;;12.96;100.00;96046.16;4830098;29;20053;-84
2023/08/29 06:35:34;;;;;;;0.20;0.20;;;;;;;13.04;100.00;96027.59;4843045;29;20053;-84
2023/08/29 06:38:20;;;;;;;0.20;0.20;;;;;;;13.04;100.00;96037.53;4842424;29;20056;-81
2023/08/29 06:41:06;;;;;;;0.20;0.20;;;;;;;13.09;100.00;96030.28;4844024;29;20698;-83
2023/08/29 06:43:52;;;;;;;0.10;0.10;;;;;;;13.10;100.00;96039.94;4843306;29;20124;-82
2023/08/29 06:46:38;;;;;;;0.10;0.10;;;;;;;13.13;100.00;96041.25;4844307;29;20045;-82
2023/08/29 06:49:24;;;;;;;0.20;0.20;;;;;;;13.22;100.00;96038.84;4842896;29;20126;-83
2023/08/29 06:52:09;;;;;;;0.20;0.20;;;;;;;13.21;100.00;96037.22;4841689;29;20157;-81
2023/08/29 06:54:55;;;;;;;0.10;0.10;;;;;;;13.28;100.00;96041.22;4842424;29;20053;-82
2023/08/29 06:57:41;;;;;;;0.20;0.20;;;;;;;13.37;100.00;96049.53;4858182;29;20109;-82
2023/08/29 07:00:27;;;;;;;0.20;0.20;;;;;;;13.44;100.00;96050.03;4860765;29;20184;-82
2023/08/29 07:03:13;;;;;;;0.10;0.10;;;;;;;13.53;100.00;96047.56;4844509;29;20037;-81
2023/08/29 07:05:59;;;;;;;0.10;0.10;;;;;;;13.57;100.00;96045.94;4859481;29;20083;-81
2023/08/29 07:08:47;;;;;;;0.10;0.10;;;;;;;13.59;100.00;96051.84;4861506;29;20049;-82
2023/08/29 07:11:33;;;;;;;0.10;0.10;;;;;;;13.70;100.00;96049.91;4861791;29;20048;-81
2023/08/29 07:14:19;;;;;;;0.10;0.10;;;;;;;13.77;100.00;96053.06;4860305;29;20045;-81
2023/08/29 07:17:06;;;;;;;0.20;0.20;;;;;;;13.71;100.00;96052.31;4861483;29;20051;-80
2023/08/29 07:19:52;;;;;;;0.10;0.10;;;;;;;13.89;100.00;96050.88;4861502;29;20077;-82
2023/08/29 07:22:40;;;;;;;0.20;0.20;;;;;;;13.95;100.00;96049.75;4861768;29;20151;-82
2023/08/29 07:25:38;;;;;;;0.22;0.22;;;;;;;14.10;100.00;96052.34;4860067;29;20049;-83
2023/08/29 07:28:24;;;;;;;0.15;0.15;;;;;;;14.07;100.00;96055.56;4847789;29;20467;-81
2023/08/29 07:31:10;;;;;;;0.20;0.20;;;;;;;14.00;100.00;96057.78;4858395;29;20587;-81
2023/08/29 07:33:55;;;;;;;0.10;0.10;;;;;;;14.15;100.00;96064.94;4858772;29;20817;-82
2023/08/29 07:36:42;;;;;;;0.10;0.10;;;;;;;14.28;100.00;96063.50;4859367;29;20045;-82
2023/08/29 07:39:28;;;;;;;0.10;0.10;;;;;;;14.54;100.00;96064.13;4848240;29;20128;-83
2023/08/29 07:42:14;;;;;;;0.10;0.10;;;;;;;14.66;100.00;96064.56;4859452;29;20613;-83
2023/08/29 07:45:00;;;;;;;0.20;0.20;;;;;;;14.83;100.00;96072.19;4859060;29;20102;-82
2023/08/29 07:47:45;;;;;;;0.10;0.10;;;;;;;14.82;100.00;96065.22;4860353;29;20049;-83
2023/08/29 07:50:31;;;;;;;0.10;0.10;;;;;;;14.91;100.00;96068.88;4859484;29;20096;-82
2023/08/29 07:53:18;;;;;;;0.20;0.20;;;;;;;15.10;100.00;96064.38;4860055;29;20045;-82
2023/08/29 07:56:03;;;;;;;0.10;0.10;;;;;;;15.31;100.00;96065.75;4856274;29;20053;-83
2023/08/29 07:58:49;;;;;;;0.20;0.20;;;;;;;15.48;100.00;96057.16;4842337;29;20152;-81
2023/08/29 08:01:35;;;;;;;0.20;0.20;;;;;;;15.51;100.00;96066.59;4841924;29;20061;-81
2023/08/29 08:04:21;;;;;;;0.20;0.20;;;;;;;15.54;100.00;96068.69;4840504;29;20049;-81
2023/08/29 08:07:07;;;;;;;0.10;0.10;;;;;;;15.66;100.00;96066.44;4842559;29;20049;-82
2023/08/29 08:09:52;;;;;;;0.15;0.15;;;;;;;15.61;100.00;96071.88;4841933;29;20133;-80
2023/08/29 08:12:40;;;;;;;0.20;0.20;;;;;;;15.74;100.00;96070.38;4842101;29;20049;-81
2023/08/29 08:15:25;;;;;;;0.10;0.10;;;;;;;15.74;100.00;96073.06;4842130;29;20772;-81
2023/08/29 08:18:11;;;;;;;0.10;0.10;;;;;;;15.91;100.00;96075.28;4840681;29;20055;-81
2023/08/29 08:20:57;;;;;;;0.15;0.15;;;;;;;16.04;100.00;96075.34;4840820;29;20889;-81
2023/08/29 08:23:43;;;;;;;0.10;0.10;;;;;;;16.21;100.00;96087.53;4839297;29;20041;-81
2023/08/29 08:26:29;;;;;;;0.10;0.10;;;;;;;16.27;100.00;96089.84;4841399;29;20052;-81
2023/08/29 08:29:15;;;;;;;0.10;0.10;;;;;;;16.37;100.00;96088.88;4841323;29;20060;-82
2023/08/29 08:32:01;;;;;;;0.20;0.20;;;;;;;16.13;100.00;96089.78;4839499;29;20128;-81
2023/08/29 08:34:46;;;;;;;0.20;0.20;;;;;;;16.42;100.00;96078.81;4838639;29;20499;-82
2023/08/29 08:37:35;;;;;;;0.13;0.13;;;;;;;16.53;100.00;96087.53;4839213;29;20042;-81
2023/08/29 08:40:22;;;;;;;0.20;0.20;;;;;;;16.66;100.00;96088.69;4841430;29;20050;-83
2023/08/29 08:43:09;;;;;;;0.20;0.20;;;;;;;16.71;100.00;96084.03;4843080;29;20072;-83
2023/08/29 08:45:56;;;;;;;0.30;0.30;;;;;;;16.70;100.00;96078.91;4845430;29;20045;-83
2023/08/29 08:48:42;;;;;;;0.10;0.10;;;;;;;16.74;100.00;96088.06;4843911;29;20073;-82
2023/08/29 08:51:30;;;;;;;0.10;0.10;;;;;;;16.72;100.00;96084.81;4842760;29;20049;-82
2023/08/29 08:54:16;;;;;;;0.13;0.13;;;;;;;16.83;100.00;96088.97;4845020;29;20050;-82
2023/08/29 08:57:03;;;;;;;0.10;0.10;;;;;;;16.84;100.00;96098.69;4846096;29;20140;-82
2023/08/29 08:59:49;;;;;;;0.10;0.10;;;;;;;16.81;100.00;96093.88;4842874;29;20105;-82
2023/08/29 09:02:40;;;;;;;0.20;0.20;;;;;;;16.88;100.00;96098.88;4840528;29;20083;-82
2023/08/29 09:05:26;;;;;;;0.20;0.20;;;;;;;16.92;100.00;96106.09;4844047;29;20058;-82
2023/08/29 09:08:12;;;;;;;0.20;0.20;;;;;;;16.92;100.00;96108.00;4842900;29;20085;-81
2023/08/29 09:11:03;;;;;;;0.20;0.20;;;;;;;16.83;100.00;96110.59;4842026;29;20790;-81
2023/08/29 09:13:49;;;;;;;0.13;0.13;;;;;;;17.13;100.00;96111.94;4842982;29;20082;-80
2023/08/29 09:16:35;;;;;;;0.20;0.20;;;;;;;17.26;100.00;96100.31;4844558;29;20835;-81
2023/08/29 09:19:22;;;;;;;0.17;0.17;;;;;;;17.24;100.00;96107.16;4843056;29;20054;-80
2023/08/29 09:22:08;;;;;;;0.20;0.20;;;;;;;17.41;100.00;96112.75;4843998;29;20534;-81
2023/08/29 09:25:02;;;;;;;0.20;0.20;;;;;;;17.50;100.00;96110.94;4844031;29;20056;-81
2023/08/29 09:27:48;;;;;;;0.10;0.10;;;;;;;17.59;100.00;96113.78;4843421;29;20492;-81
2023/08/29 09:30:41;;;;;;;0.13;0.13;;;;;;;17.88;100.00;96112.66;4842449;29;20061;-81
2023/08/29 09:33:27;;;;;;;0.20;0.20;;;;;;;17.94;100.00;96106.84;4844094;29;20049;-82
2023/08/29 09:36:13;;;;;;;0.10;0.10;;;;;;;18.12;100.00;96104.28;4843557;29;20049;-82
2023/08/29 09:39:00;;;;;;;0.13;0.13;;;;;;;18.09;100.00;96111.13;4843346;29;20110;-82
2023/08/29 09:42:03;;;;;;;0.10;0.10;;;;;;;18.19;100.00;96108.19;4843435;29;20570;-82
2023/08/29 09:44:52;;;;;;;0.15;0.15;;;;;;;18.39;100.00;96101.50;4842945;29;20038;-82
2023/08/29 09:47:38;;;;;;;0.20;0.20;;;;;;;18.58;100.00;96104.03;4844450;29;20046;-81
2023/08/29 09:50:24;;;;;;;0.20;0.20;;;;;;;18.67;100.00;96109.53;4844018;29;20049;-84
2023/08/29 09:53:15;;;;;;;0.20;0.20;;;;;;;18.85;100.00;96100.44;4843232;29;20052;-83
2023/08/29 09:56:10;;;;;;;0.20;0.20;;;;;;;19.02;100.00;96105.97;4848078;29;20045;-83
2023/08/29 09:58:59;;;;;;;0.10;0.10;;;;;;;19.11;100.00;96098.66;4844028;29;20052;-82
2023/08/29 10:01:46;;;;;;;0.20;0.20;;;;;;;19.27;100.00;96095.53;4844537;29;20384;-82
2023/08/29 10:04:38;;;;;;;0.10;0.10;;;;;;;19.40;100.00;96089.22;4845369;29;20049;-82
2023/08/29 10:07:26;;;;;;;0.13;0.13;;;;;;;19.47;100.00;96089.56;4845934;29;20415;-83
2023/08/29 10:10:12;;;;;;;0.20;0.20;;;;;;;19.52;100.00;96086.69;4845751;29;20270;-81
2023/08/29 10:13:00;;;;;;;0.20;0.20;;;;;;;19.51;100.00;96079.69;4843886;29;20346;-84
2023/08/29 10:15:47;;;;;;;0.13;0.13;;;;;;;19.51;100.00;96076.16;4843022;29;20136;-83
2023/08/29 10:18:34;;;;;;;0.17;0.17;;;;;;;19.62;100.00;96078.31;4843732;29;20056;-83
2023/08/29 10:21:23;;;;;;;0.20;0.20;;;;;;;19.72;100.00;96069.88;4843987;29;20037;-83
2023/08/29 10:24:11;;;;;;;0.20;0.20;;;;;;;19.71;100.00;96070.19;4843007;29;20045;-83
2023/08/29 10:26:59;;;;;;;0.20;0.20;;;;;;;19.67;100.00;96072.72;4848594;29;20523;-81
2023/08/29 10:29:44;;;;;;;0.10;0.10;;;;;;;19.63;100.00;96065.56;4855703;29;20045;-82
2023/08/29 10:32:37;;;;;;;0.20;0.20;;;;;;;19.93;100.00;96059.22;4850167;29;20290;-81
2023/08/29 10:35:23;;;;;;;0.20;0.20;;;;;;;20.48;100.00;96055.09;4852510;29;20046;-82
2023/08/29 10:38:15;;;;;;;0.10;0.10;;;;;;;20.21;100.00;96053.47;4846151;29;20597;-81
2023/08/29 10:41:06;;;;;;;0.20;0.20;;;;;;;20.45;100.00;96059.25;4842972;29;20068;-81
2023/08/29 10:44:11;;;;;;;;;;;;;;;21.01;100.00;96056.56;4840349;29;20045;-83
2023/08/29 10:47:30;;;;;;;0.20;0.20;;;;;;;21.75;100.00;96050.69;4840879;29;19926;-82
2023/08/29 10:50:19;;;;;;;0.20;0.20;;;;;;;22.68;100.00;96043.25;4842005;29;20459;-84
2023/08/29 10:53:17;;;;;;;0.13;0.13;;;;;;;23.66;95.58;96038.78;4840148;29;20041;-83
2023/08/29 10:56:10;;;;;;;0.20;0.20;;;;;;;24.11;93.71;96033.13;4841462;29;20069;-84
2023/08/29 10:58:56;;;;;;;0.10;0.10;;;;;;;25.06;88.18;96038.13;4841391;29;20558;-84
2023/08/29 11:01:41;;;;;;;0.10;0.10;;;;;;;26.22;80.60;96024.81;4841868;29;20601;-83
2023/08/29 11:04:28;;;;;;;0.20;0.20;;;;;;;26.67;76.56;96030.50;4838786;29;20049;-83
2023/08/29 11:07:26;;;;;;;0.20;0.20;;;;;;;26.86;68.17;96029.69;4828727;29;20046;-83
2023/08/29 11:10:20;;;;;;;0.10;0.10;;;;;;;27.37;65.99;96021.19;4841522;29;20049;-81
2023/08/29 11:13:09;;;;;;;0.00;0.00;;;;;;;25.88;81.57;96026.44;4841698;29;20049;-82
2023/08/29 11:15:55;;;;;;;0.10;0.10;;;;;;;24.10;91.17;96026.06;4840920;29;20050;-82
2023/08/29 11:18:41;;;;;;;0.20;0.20;;;;;;;25.61;83.40;96028.94;4841555;29;20353;-84
2023/08/29 11:21:29;;;;;;;0.17;0.17;;;;;;;25.47;80.05;96029.41;4841287;29;20453;-82
2023/08/29 11:24:15;;;;;;;0.20;0.20;;;;;;;25.95;62.58;96024.66;4840715;29;20890;-82
2023/08/29 11:27:00;;;;;;;0.10;0.10;;;;;;;25.74;79.15;96030.44;4840585;29;20049;-83
2023/08/29 11:29:47;;;;;;;0.20;0.20;;;;;;;26.75;61.25;96017.69;4825518;29;20349;-84
2023/08/29 11:32:33;;;;;;;0.20;0.20;;;;;;;28.51;47.34;96006.38;4841476;29;20542;-84
2023/08/29 11:35:19;;;;;;;0.20;0.20;;;;;;;29.94;38.32;96011.22;4840750;29;20055;-82
2023/08/29 11:38:05;;;;;;;0.20;0.20;;;;;;;31.79;36.02;96004.69;4826063;29;20567;-82
2023/08/29 11:40:51;;;;;;;0.20;0.20;;;;;;;32.58;36.93;96002.50;4841637;29;20049;-82
2023/08/29 11:43:37;;;;;;;0.20;0.20;;;;;;;34.04;33.41;96018.16;4841549;29;20129;-81
2023/08/29 11:46:32;;;;;;;0.20;0.20;;;;;;;34.45;30.91;96004.25;4842262;29;20063;-83
2023/08/29 11:49:17;;;;;;;0.10;0.10;;;;;;;34.07;29.82;96007.03;4840838;29;20540;-85
2023/08/29 11:52:04;;;;;;;0.10;0.10;;;;;;;29.96;37.29;96014.41;4839328;29;20136;-83
2023/08/29 11:54:54;;;;;;;0.10;0.10;;;;;;;27.94;50.77;96011.09;4839845;29;20061;-82
2023/08/29 11:57:43;;;;;;;0.10;0.10;;;;;;;26.00;56.56;96015.38;4840533;29;20057;-81
2023/08/29 12:00:30;;;;;;;0.00;0.00;;;;;;;24.72;75.89;96035.66;4838960;29;20528;-83
2023/08/29 12:03:25;;;;;;;0.00;0.00;;;;;;;23.09;77.84;96031.44;4838945;29;20151;-83
2023/08/29 12:06:13;;;;;;;0.00;0.00;;;;;;;21.80;87.66;96031.44;4840103;29;20330;-83
2023/08/29 12:08:59;;;;;;;0.00;0.00;;;;;;;19.82;98.85;96040.81;4842392;29;20057;-81
2023/08/29 12:11:45;;;;;;;0.00;0.00;;;;;;;19.86;99.21;96042.59;4842848;29;20052;-82
2023/08/29 12:14:31;;;;;;;0.10;0.10;;;;;;;19.35;100.00;96043.25;4841110;29;20494;-81
2023/08/29 12:17:18;;;;;;;0.10;0.10;;;;;;;18.71;100.00;96040.88;4842908;29;20738;-84
2023/08/29 12:20:28;;;;;;;0.10;0.10;;;;;;;18.98;100.00;96037.19;4839708;29;20640;-81
2023/08/29 12:23:24;;;;;;;0.10;0.10;;;;;;;18.37;100.00;96047.66;4841435;29;20046;-82
2023/08/29 12:26:11;;;;;;;0.10;0.10;;;;;;;18.41;100.00;96047.03;4827370;29;20483;-82
2023/08/29 12:28:57;;;;;;;0.05;0.05;;;;;;;18.67;100.00;96039.88;4842525;29;20306;-82
2023/08/29 12:31:43;;;;;;;0.10;0.10;;;;;;;18.54;100.00;96030.72;4840232;29;20046;-82
2023/08/29 12:34:29;;;;;;;0.10;0.10;;;;;;;18.71;100.00;96040.09;4841172;29;20493;-82
2023/08/29 12:37:15;;;;;;;0.10;0.10;;;;;;;18.88;100.00;96032.03;4842647;29;21048;-83
2023/08/29 12:40:04;;;;;;;0.00;0.00;;;;;;;18.96;100.00;96028.56;4839538;29;20125;-83
2023/08/29 12:42:51;;;;;;;0.10;0.10;;;;;;;18.33;100.00;96041.25;4840440;29;20050;-82
2023/08/29 12:45:37;;;;;;;0.10;0.10;;;;;;;18.54;100.00;96041.56;4840494;29;20041;-84
2023/08/29 12:48:23;;;;;;;0.10;0.10;;;;;;;18.98;100.00;96029.06;4840673;29;20047;-83
2023/08/29 12:51:12;;;;;;;0.10;0.10;;;;;;;19.30;100.00;96027.09;4840948;29;20602;-83
2023/08/29 12:53:58;;;;;;;0.10;0.10;;;;;;;19.24;100.00;96031.09;4842646;29;20575;-83
2023/08/29 12:56:46;;;;;;;0.10;0.10;;;;;;;19.32;100.00;96024.91;4841684;29;20053;-82
2023/08/29 12:59:32;;;;;;;0.10;0.10;;;;;;;19.26;100.00;96034.28;4841831;29;20049;-83